sensor_id;sensor_type;location;lat;lon;timestamp;P1;durP1;ratioP1;P2;durP2;ratioP2
55134;SDS011;41031;44.750;11.308;2023-08-12T00:00:22;2.90;;;2.43;;
55134;SDS011;41031;44.750;11.308;2023-08-12T00:02:49;3.90;;;3.03;;
55134;SDS011;41031;44.750;11.308;2023-08-12T00:05:16;4.20;;;2.77;;
55134;SDS011;41031;44.750;11.308;2023-08-12T00:07:43;3.53;;;2.23;;
55134;SDS011;41031;44.750;11.308;2023-08-12T00:10:11;3.07;;;2.10;;
55134;SDS011;41031;44.750;11.308;2023-08-12T00:12:39;5.23;;;3.10;;
55134;SDS011;41031;44.750;11.308;2023-08-12T00:15:07;3.13;;;2.83;;
55134;SDS011;41031;44.750;11.308;2023-08-12T00:17:35;3.00;;;2.80;;
55134;SDS011;41031;44.750;11.308;2023-08-12T00:20:04;8.60;;;3.27;;
55134;SDS011;41031;44.750;11.308;2023-08-12T00:22:37;4.30;;;3.20;;
55134;SDS011;41031;44.750;11.308;2023-08-12T00:25:05;5.43;;;3.93;;
55134;SDS011;41031;44.750;11.308;2023-08-12T00:27:33;5.60;;;3.07;;
55134;SDS011;41031;44.750;11.308;2023-08-12T00:30:00;4.87;;;2.90;;
55134;SDS011;41031;44.750;11.308;2023-08-12T00:32:27;6.47;;;3.67;;
55134;SDS011;41031;44.750;11.308;2023-08-12T00:34:54;4.43;;;3.23;;
55134;SDS011;41031;44.750;11.308;2023-08-12T00:37:21;5.30;;;2.87;;
55134;SDS011;41031;44.750;11.308;2023-08-12T00:39:49;6.70;;;3.27;;
55134;SDS011;41031;44.750;11.308;2023-08-12T00:42:16;7.73;;;3.60;;
55134;SDS011;41031;44.750;11.308;2023-08-12T00:44:43;3.90;;;2.80;;
55134;SDS011;41031;44.750;11.308;2023-08-12T00:47:10;3.83;;;3.40;;
55134;SDS011;41031;44.750;11.308;2023-08-12T00:49:37;5.33;;;3.40;;
55134;SDS011;41031;44.750;11.308;2023-08-12T00:52:07;7.13;;;3.90;;
55134;SDS011;41031;44.750;11.308;2023-08-12T00:54:34;3.83;;;3.27;;
55134;SDS011;41031;44.750;11.308;2023-08-12T00:57:01;5.57;;;3.20;;
55134;SDS011;41031;44.750;11.308;2023-08-12T00:59:28;4.87;;;2.70;;
55134;SDS011;41031;44.750;11.308;2023-08-12T01:01:55;6.07;;;3.10;;
55134;SDS011;41031;44.750;11.308;2023-08-12T01:04:23;3.17;;;2.80;;
55134;SDS011;41031;44.750;11.308;2023-08-12T01:06:50;3.77;;;3.27;;
55134;SDS011;41031;44.750;11.308;2023-08-12T01:09:17;5.53;;;3.70;;
55134;SDS011;41031;44.750;11.308;2023-08-12T01:17:24;5.53;;;3.70;;
55134;SDS011;41031;44.750;11.308;2023-08-12T01:19:55;6.40;;;4.43;;
55134;SDS011;41031;44.750;11.308;2023-08-12T01:22:23;9.53;;;4.07;;
55134;SDS011;41031;44.750;11.308;2023-08-12T01:24:54;6.70;;;4.07;;
55134;SDS011;41031;44.750;11.308;2023-08-12T01:27:21;4.40;;;4.00;;
55134;SDS011;41031;44.750;11.308;2023-08-12T01:29:49;4.87;;;4.37;;
55134;SDS011;41031;44.750;11.308;2023-08-12T01:37:45;7.83;;;3.90;;
55134;SDS011;41031;44.750;11.308;2023-08-12T01:40:12;8.27;;;4.53;;
55134;SDS011;41031;44.750;11.308;2023-08-12T01:42:42;4.87;;;4.20;;
55134;SDS011;41031;44.750;11.308;2023-08-12T01:45:09;6.83;;;4.80;;
55134;SDS011;41031;44.750;11.308;2023-08-12T01:47:37;6.77;;;4.50;;
55134;SDS011;41031;44.750;11.308;2023-08-12T01:50:05;5.67;;;5.17;;
55134;SDS011;41031;44.750;11.308;2023-08-12T01:52:33;6.23;;;4.87;;
55134;SDS011;41031;44.750;11.308;2023-08-12T01:55:00;5.10;;;4.60;;
55134;SDS011;41031;44.750;11.308;2023-08-12T01:57:27;7.23;;;5.13;;
55134;SDS011;41031;44.750;11.308;2023-08-12T01:59:54;6.20;;;5.13;;
55134;SDS011;41031;44.750;11.308;2023-08-12T02:02:21;7.07;;;5.17;;
55134;SDS011;41031;44.750;11.308;2023-08-12T02:04:49;6.30;;;4.40;;
55134;SDS011;41031;44.750;11.308;2023-08-12T02:07:16;7.47;;;5.33;;
55134;SDS011;41031;44.750;11.308;2023-08-12T02:09:44;5.77;;;5.27;;
55134;SDS011;41031;44.750;11.308;2023-08-12T02:12:11;9.20;;;5.37;;
55134;SDS011;41031;44.750;11.308;2023-08-12T02:14:38;8.03;;;4.97;;
55134;SDS011;41031;44.750;11.308;2023-08-12T02:17:05;6.80;;;4.97;;
55134;SDS011;41031;44.750;11.308;2023-08-12T02:19:33;5.93;;;5.33;;
55134;SDS011;41031;44.750;11.308;2023-08-12T02:22:03;5.53;;;5.03;;
55134;SDS011;41031;44.750;11.308;2023-08-12T02:24:30;7.03;;;5.70;;
55134;SDS011;41031;44.750;11.308;2023-08-12T02:26:57;6.53;;;5.93;;
55134;SDS011;41031;44.750;11.308;2023-08-12T02:29:24;6.60;;;5.90;;
55134;SDS011;41031;44.750;11.308;2023-08-12T02:31:51;7.37;;;5.33;;
55134;SDS011;41031;44.750;11.308;2023-08-12T02:34:19;7.70;;;5.73;;
55134;SDS011;41031;44.750;11.308;2023-08-12T02:36:46;7.40;;;5.73;;
55134;SDS011;41031;44.750;11.308;2023-08-12T02:39:13;7.00;;;6.40;;
55134;SDS011;41031;44.750;11.308;2023-08-12T02:41:40;9.30;;;6.10;;
55134;SDS011;41031;44.750;11.308;2023-08-12T02:44:07;6.27;;;5.40;;
55134;SDS011;41031;44.750;11.308;2023-08-12T02:46:34;6.23;;;5.73;;
55134;SDS011;41031;44.750;11.308;2023-08-12T02:49:01;9.70;;;5.77;;
55134;SDS011;41031;44.750;11.308;2023-08-12T02:51:28;6.47;;;5.87;;
55134;SDS011;41031;44.750;11.308;2023-08-12T02:53:55;6.73;;;6.03;;
55134;SDS011;41031;44.750;11.308;2023-08-12T02:56:22;7.70;;;5.80;;
55134;SDS011;41031;44.750;11.308;2023-08-12T02:58:49;6.60;;;6.00;;
55134;SDS011;41031;44.750;11.308;2023-08-12T03:01:16;6.40;;;5.80;;
55134;SDS011;41031;44.750;11.308;2023-08-12T03:03:44;7.37;;;6.77;;
55134;SDS011;41031;44.750;11.308;2023-08-12T03:06:11;6.50;;;5.87;;
55134;SDS011;41031;44.750;11.308;2023-08-12T03:08:38;7.67;;;6.17;;
55134;SDS011;41031;44.750;11.308;2023-08-12T03:11:06;6.93;;;6.33;;
55134;SDS011;41031;44.750;11.308;2023-08-12T03:13:33;9.20;;;6.77;;
55134;SDS011;41031;44.750;11.308;2023-08-12T03:16:01;7.30;;;6.33;;
55134;SDS011;41031;44.750;11.308;2023-08-12T03:18:28;10.53;;;6.77;;
55134;SDS011;41031;44.750;11.308;2023-08-12T03:20:55;6.53;;;5.93;;
55134;SDS011;41031;44.750;11.308;2023-08-12T03:23:24;9.17;;;6.00;;
55134;SDS011;41031;44.750;11.308;2023-08-12T03:25:51;7.30;;;6.60;;
55134;SDS011;41031;44.750;11.308;2023-08-12T03:28:18;7.90;;;5.57;;
55134;SDS011;41031;44.750;11.308;2023-08-12T03:30:52;9.27;;;5.93;;
55134;SDS011;41031;44.750;11.308;2023-08-12T03:33:22;6.40;;;5.53;;
55134;SDS011;41031;44.750;11.308;2023-08-12T03:35:51;8.70;;;6.40;;
55134;SDS011;41031;44.750;11.308;2023-08-12T03:38:18;8.23;;;6.00;;
55134;SDS011;41031;44.750;11.308;2023-08-12T03:40:45;7.40;;;6.70;;
55134;SDS011;41031;44.750;11.308;2023-08-12T03:43:15;6.13;;;5.53;;
55134;SDS011;41031;44.750;11.308;2023-08-12T03:45:43;7.53;;;6.20;;
55134;SDS011;41031;44.750;11.308;2023-08-12T03:48:13;7.47;;;5.40;;
55134;SDS011;41031;44.750;11.308;2023-08-12T03:50:42;8.47;;;6.20;;
55134;SDS011;41031;44.750;11.308;2023-08-12T03:53:09;7.43;;;5.63;;
55134;SDS011;41031;44.750;11.308;2023-08-12T03:55:37;8.03;;;6.47;;
55134;SDS011;41031;44.750;11.308;2023-08-12T03:58:06;6.60;;;6.00;;
55134;SDS011;41031;44.750;11.308;2023-08-12T04:00:33;6.93;;;6.23;;
55134;SDS011;41031;44.750;11.308;2023-08-12T04:03:02;8.03;;;6.33;;
55134;SDS011;41031;44.750;11.308;2023-08-12T04:05:29;8.73;;;6.70;;
55134;SDS011;41031;44.750;11.308;2023-08-12T04:07:56;9.93;;;6.60;;
55134;SDS011;41031;44.750;11.308;2023-08-12T04:10:23;6.43;;;5.87;;
55134;SDS011;41031;44.750;11.308;2023-08-12T04:12:50;6.33;;;5.80;;
55134;SDS011;41031;44.750;11.308;2023-08-12T04:15:17;7.30;;;6.60;;
55134;SDS011;41031;44.750;11.308;2023-08-12T04:17:44;8.70;;;5.93;;
55134;SDS011;41031;44.750;11.308;2023-08-12T04:20:11;6.97;;;6.37;;
55134;SDS011;41031;44.750;11.308;2023-08-12T04:22:38;6.47;;;5.83;;
55134;SDS011;41031;44.750;11.308;2023-08-12T04:25:06;6.40;;;5.90;;
55134;SDS011;41031;44.750;11.308;2023-08-12T04:27:34;8.00;;;7.13;;
55134;SDS011;41031;44.750;11.308;2023-08-12T04:30:02;9.37;;;7.50;;
55134;SDS011;41031;44.750;11.308;2023-08-12T04:32:30;12.20;;;8.20;;
55134;SDS011;41031;44.750;11.308;2023-08-12T04:34:57;9.17;;;8.17;;
55134;SDS011;41031;44.750;11.308;2023-08-12T04:37:24;9.33;;;8.43;;
55134;SDS011;41031;44.750;11.308;2023-08-12T04:39:53;9.07;;;7.53;;
55134;SDS011;41031;44.750;11.308;2023-08-12T04:42:20;9.97;;;8.17;;
55134;SDS011;41031;44.750;11.308;2023-08-12T04:44:47;8.63;;;7.73;;
55134;SDS011;41031;44.750;11.308;2023-08-12T04:47:15;8.93;;;8.03;;
55134;SDS011;41031;44.750;11.308;2023-08-12T04:49:42;8.50;;;7.70;;
55134;SDS011;41031;44.750;11.308;2023-08-12T04:52:09;8.23;;;7.43;;
55134;SDS011;41031;44.750;11.308;2023-08-12T04:54:36;8.43;;;7.73;;
55134;SDS011;41031;44.750;11.308;2023-08-12T04:57:03;8.20;;;7.33;;
55134;SDS011;41031;44.750;11.308;2023-08-12T04:59:32;8.40;;;7.70;;
55134;SDS011;41031;44.750;11.308;2023-08-12T05:01:59;9.43;;;8.37;;
55134;SDS011;41031;44.750;11.308;2023-08-12T05:04:48;14.83;;;8.23;;
55134;SDS011;41031;44.750;11.308;2023-08-12T05:07:17;9.33;;;8.43;;
55134;SDS011;41031;44.750;11.308;2023-08-12T05:09:44;10.80;;;7.63;;
55134;SDS011;41031;44.750;11.308;2023-08-12T05:12:13;8.50;;;7.70;;
55134;SDS011;41031;44.750;11.308;2023-08-12T05:14:40;8.13;;;7.20;;
55134;SDS011;41031;44.750;11.308;2023-08-12T05:17:08;7.90;;;7.13;;
55134;SDS011;41031;44.750;11.308;2023-08-12T05:19:35;8.63;;;7.47;;
55134;SDS011;41031;44.750;11.308;2023-08-12T05:22:03;9.00;;;8.03;;
55134;SDS011;41031;44.750;11.308;2023-08-12T05:24:30;13.40;;;7.90;;
55134;SDS011;41031;44.750;11.308;2023-08-12T05:26:57;14.73;;;9.07;;
55134;SDS011;41031;44.750;11.308;2023-08-12T05:29:24;11.23;;;10.00;;
55134;SDS011;41031;44.750;11.308;2023-08-12T05:31:51;24.80;;;22.07;;
55134;SDS011;41031;44.750;11.308;2023-08-12T05:34:19;35.23;;;31.93;;
55134;SDS011;41031;44.750;11.308;2023-08-12T05:36:46;46.93;;;42.40;;
55134;SDS011;41031;44.750;11.308;2023-08-12T05:39:13;45.50;;;41.00;;
55134;SDS011;41031;44.750;11.308;2023-08-12T05:41:41;44.57;;;40.27;;
55134;SDS011;41031;44.750;11.308;2023-08-12T05:44:08;55.37;;;49.77;;
55134;SDS011;41031;44.750;11.308;2023-08-12T05:46:35;59.67;;;53.67;;
55134;SDS011;41031;44.750;11.308;2023-08-12T05:49:02;64.63;;;58.30;;
55134;SDS011;41031;44.750;11.308;2023-08-12T05:51:30;65.27;;;58.87;;
55134;SDS011;41031;44.750;11.308;2023-08-12T05:53:57;54.47;;;49.23;;
55134;SDS011;41031;44.750;11.308;2023-08-12T05:56:24;45.23;;;40.53;;
55134;SDS011;41031;44.750;11.308;2023-08-12T05:58:51;37.83;;;33.97;;
55134;SDS011;41031;44.750;11.308;2023-08-12T06:01:18;31.93;;;28.53;;
55134;SDS011;41031;44.750;11.308;2023-08-12T06:03:46;26.97;;;23.27;;
55134;SDS011;41031;44.750;11.308;2023-08-12T06:06:13;25.10;;;22.60;;
55134;SDS011;41031;44.750;11.308;2023-08-12T06:08:40;22.23;;;19.77;;
55134;SDS011;41031;44.750;11.308;2023-08-12T06:11:07;21.97;;;19.67;;
55134;SDS011;41031;44.750;11.308;2023-08-12T06:13:34;15.30;;;13.30;;
55134;SDS011;41031;44.750;11.308;2023-08-12T06:16:01;20.40;;;16.00;;
55134;SDS011;41031;44.750;11.308;2023-08-12T06:18:28;20.90;;;18.70;;
55134;SDS011;41031;44.750;11.308;2023-08-12T06:20:55;21.80;;;19.57;;
55134;SDS011;41031;44.750;11.308;2023-08-12T06:23:22;19.10;;;17.20;;
55134;SDS011;41031;44.750;11.308;2023-08-12T06:25:53;22.17;;;19.97;;
55134;SDS011;41031;44.750;11.308;2023-08-12T06:28:19;19.80;;;17.83;;
55134;SDS011;41031;44.750;11.308;2023-08-12T06:30:47;20.97;;;17.60;;
55134;SDS011;41031;44.750;11.308;2023-08-12T06:33:14;18.23;;;16.30;;
55134;SDS011;41031;44.750;11.308;2023-08-12T06:35:41;16.50;;;14.70;;
55134;SDS011;41031;44.750;11.308;2023-08-12T06:38:08;18.70;;;16.87;;
55134;SDS011;41031;44.750;11.308;2023-08-12T06:40:37;15.87;;;12.40;;
55134;SDS011;41031;44.750;11.308;2023-08-12T06:43:05;11.83;;;10.60;;
55134;SDS011;41031;44.750;11.308;2023-08-12T06:45:34;15.47;;;13.53;;
55134;SDS011;41031;44.750;11.308;2023-08-12T06:48:01;10.27;;;9.03;;
55134;SDS011;41031;44.750;11.308;2023-08-12T06:50:31;7.30;;;5.87;;
55134;SDS011;41031;44.750;11.308;2023-08-12T06:52:59;6.33;;;5.50;;
55134;SDS011;41031;44.750;11.308;2023-08-12T06:55:26;5.40;;;4.90;;
55134;SDS011;41031;44.750;11.308;2023-08-12T06:57:53;8.03;;;4.40;;
55134;SDS011;41031;44.750;11.308;2023-08-12T07:00:20;6.40;;;4.13;;
55134;SDS011;41031;44.750;11.308;2023-08-12T07:02:47;3.90;;;3.60;;
55134;SDS011;41031;44.750;11.308;2023-08-12T07:05:14;4.83;;;4.43;;
55134;SDS011;41031;44.750;11.308;2023-08-12T07:07:41;4.53;;;4.13;;
55134;SDS011;41031;44.750;11.308;2023-08-12T07:10:09;5.37;;;4.83;;
55134;SDS011;41031;44.750;11.308;2023-08-12T07:12:36;4.33;;;3.93;;
55134;SDS011;41031;44.750;11.308;2023-08-12T07:15:03;6.13;;;3.57;;
55134;SDS011;41031;44.750;11.308;2023-08-12T07:17:31;4.10;;;3.70;;
55134;SDS011;41031;44.750;11.308;2023-08-12T07:19:58;8.30;;;3.77;;
55134;SDS011;41031;44.750;11.308;2023-08-12T07:22:25;3.97;;;3.57;;
55134;SDS011;41031;44.750;11.308;2023-08-12T07:24:52;6.80;;;3.20;;
55134;SDS011;41031;44.750;11.308;2023-08-12T07:27:19;4.20;;;3.33;;
55134;SDS011;41031;44.750;11.308;2023-08-12T07:29:46;4.87;;;3.20;;
55134;SDS011;41031;44.750;11.308;2023-08-12T07:32:13;4.73;;;2.90;;
55134;SDS011;41031;44.750;11.308;2023-08-12T07:34:40;4.77;;;2.80;;
55134;SDS011;41031;44.750;11.308;2023-08-12T07:37:07;3.97;;;2.77;;
55134;SDS011;41031;44.750;11.308;2023-08-12T07:39:34;3.57;;;3.20;;
55134;SDS011;41031;44.750;11.308;2023-08-12T07:42:02;4.27;;;3.20;;
55134;SDS011;41031;44.750;11.308;2023-08-12T07:44:29;2.70;;;2.40;;
55134;SDS011;41031;44.750;11.308;2023-08-12T07:46:56;3.73;;;2.87;;
55134;SDS011;41031;44.750;11.308;2023-08-12T07:49:23;3.00;;;2.80;;
55134;SDS011;41031;44.750;11.308;2023-08-12T07:51:50;3.00;;;2.40;;
55134;SDS011;41031;44.750;11.308;2023-08-12T07:54:18;5.77;;;3.53;;
55134;SDS011;41031;44.750;11.308;2023-08-12T07:56:45;4.70;;;2.40;;
55134;SDS011;41031;44.750;11.308;2023-08-12T07:59:12;3.00;;;2.67;;
55134;SDS011;41031;44.750;11.308;2023-08-12T08:01:39;2.93;;;2.63;;
55134;SDS011;41031;44.750;11.308;2023-08-12T08:04:06;3.00;;;2.57;;
55134;SDS011;41031;44.750;11.308;2023-08-12T08:06:33;11.03;;;2.40;;
55134;SDS011;41031;44.750;11.308;2023-08-12T08:09:00;3.63;;;2.20;;
55134;SDS011;41031;44.750;11.308;2023-08-12T08:11:30;2.77;;;2.57;;
55134;SDS011;41031;44.750;11.308;2023-08-12T08:13:58;3.97;;;2.67;;
55134;SDS011;41031;44.750;11.308;2023-08-12T08:16:25;3.90;;;2.30;;
55134;SDS011;41031;44.750;11.308;2023-08-12T08:18:54;3.47;;;2.60;;
55134;SDS011;41031;44.750;11.308;2023-08-12T08:21:21;2.80;;;2.47;;
55134;SDS011;41031;44.750;11.308;2023-08-12T08:23:48;2.80;;;2.40;;
55134;SDS011;41031;44.750;11.308;2023-08-12T08:26:15;3.37;;;2.03;;
55134;SDS011;41031;44.750;11.308;2023-08-12T08:28:42;2.67;;;1.93;;
55134;SDS011;41031;44.750;11.308;2023-08-12T08:31:10;2.67;;;2.40;;
55134;SDS011;41031;44.750;11.308;2023-08-12T08:33:37;4.57;;;2.73;;
55134;SDS011;41031;44.750;11.308;2023-08-12T08:36:04;4.80;;;2.10;;
55134;SDS011;41031;44.750;11.308;2023-08-12T08:38:31;3.47;;;2.50;;
55134;SDS011;41031;44.750;11.308;2023-08-12T08:40:58;4.33;;;2.40;;
55134;SDS011;41031;44.750;11.308;2023-08-12T08:43:27;4.80;;;2.10;;
55134;SDS011;41031;44.750;11.308;2023-08-12T08:45:54;3.70;;;2.20;;
55134;SDS011;41031;44.750;11.308;2023-08-12T08:48:23;4.77;;;2.27;;
55134;SDS011;41031;44.750;11.308;2023-08-12T08:50:50;2.77;;;2.17;;
55134;SDS011;41031;44.750;11.308;2023-08-12T08:53:19;2.60;;;2.40;;
55134;SDS011;41031;44.750;11.308;2023-08-12T08:55:46;3.57;;;2.50;;
55134;SDS011;41031;44.750;11.308;2023-08-12T08:58:14;4.07;;;2.33;;
55134;SDS011;41031;44.750;11.308;2023-08-12T09:00:48;4.53;;;2.10;;
55134;SDS011;41031;44.750;11.308;2023-08-12T09:03:16;2.40;;;2.20;;
55134;SDS011;41031;44.750;11.308;2023-08-12T09:05:43;3.47;;;2.23;;
55134;SDS011;41031;44.750;11.308;2023-08-12T09:08:11;5.77;;;2.70;;
55134;SDS011;41031;44.750;11.308;2023-08-12T09:10:39;4.27;;;2.40;;
55134;SDS011;41031;44.750;11.308;2023-08-12T09:13:07;3.60;;;2.20;;
55134;SDS011;41031;44.750;11.308;2023-08-12T09:15:35;2.50;;;2.30;;
55134;SDS011;41031;44.750;11.308;2023-08-12T09:18:04;5.50;;;2.30;;
55134;SDS011;41031;44.750;11.308;2023-08-12T09:20:35;2.93;;;2.20;;
55134;SDS011;41031;44.750;11.308;2023-08-12T09:23:03;3.30;;;2.40;;
55134;SDS011;41031;44.750;11.308;2023-08-12T09:25:30;3.03;;;2.30;;
55134;SDS011;41031;44.750;11.308;2023-08-12T09:28:00;2.77;;;2.07;;
55134;SDS011;41031;44.750;11.308;2023-08-12T09:30:30;4.37;;;1.90;;
55134;SDS011;41031;44.750;11.308;2023-08-12T09:33:01;4.33;;;2.20;;
55134;SDS011;41031;44.750;11.308;2023-08-12T09:35:31;3.00;;;2.70;;
55134;SDS011;41031;44.750;11.308;2023-08-12T09:38:14;3.47;;;1.87;;
55134;SDS011;41031;44.750;11.308;2023-08-12T09:40:41;3.73;;;2.33;;
55134;SDS011;41031;44.750;11.308;2023-08-12T09:43:09;4.23;;;2.20;;
55134;SDS011;41031;44.750;11.308;2023-08-12T09:45:38;2.77;;;1.90;;
55134;SDS011;41031;44.750;11.308;2023-08-12T09:48:05;3.80;;;2.20;;
55134;SDS011;41031;44.750;11.308;2023-08-12T09:50:35;4.33;;;2.30;;
55134;SDS011;41031;44.750;11.308;2023-08-12T09:53:02;2.40;;;2.20;;
55134;SDS011;41031;44.750;11.308;2023-08-12T09:55:30;4.70;;;2.70;;
55134;SDS011;41031;44.750;11.308;2023-08-12T09:58:00;4.23;;;1.97;;
55134;SDS011;41031;44.750;11.308;2023-08-12T10:00:32;2.20;;;2.00;;
55134;SDS011;41031;44.750;11.308;2023-08-12T10:03:00;10.10;;;2.63;;
55134;SDS011;41031;44.750;11.308;2023-08-12T10:05:28;2.97;;;1.80;;
55134;SDS011;41031;44.750;11.308;2023-08-12T10:07:58;3.57;;;2.33;;
55134;SDS011;41031;44.750;11.308;2023-08-12T10:10:28;3.67;;;2.20;;
55134;SDS011;41031;44.750;11.308;2023-08-12T10:12:57;7.03;;;2.10;;
55134;SDS011;41031;44.750;11.308;2023-08-12T10:15:25;3.00;;;2.10;;
55134;SDS011;41031;44.750;11.308;2023-08-12T10:17:52;2.27;;;2.10;;
55134;SDS011;41031;44.750;11.308;2023-08-12T10:20:23;1.87;;;1.57;;
55134;SDS011;41031;44.750;11.308;2023-08-12T10:22:51;3.93;;;2.13;;
55134;SDS011;41031;44.750;11.308;2023-08-12T10:25:20;2.30;;;2.10;;
55134;SDS011;41031;44.750;11.308;2023-08-12T10:27:50;2.37;;;2.10;;
55134;SDS011;41031;44.750;11.308;2023-08-12T10:30:17;2.67;;;2.00;;
55134;SDS011;41031;44.750;11.308;2023-08-12T10:32:44;2.87;;;2.17;;
55134;SDS011;41031;44.750;11.308;2023-08-12T10:35:12;2.13;;;2.00;;
55134;SDS011;41031;44.750;11.308;2023-08-12T10:37:40;3.73;;;2.00;;
55134;SDS011;41031;44.750;11.308;2023-08-12T10:40:19;2.80;;;1.97;;
55134;SDS011;41031;44.750;11.308;2023-08-12T10:42:47;3.97;;;2.17;;
55134;SDS011;41031;44.750;11.308;2023-08-12T10:45:16;4.17;;;2.20;;
55134;SDS011;41031;44.750;11.308;2023-08-12T10:48:26;4.80;;;2.20;;
55134;SDS011;41031;44.750;11.308;2023-08-12T10:50:35;3.23;;;1.87;;
55134;SDS011;41031;44.750;11.308;2023-08-12T10:53:45;8.43;;;2.20;;
55134;SDS011;41031;44.750;11.308;2023-08-12T10:56:02;3.47;;;1.93;;
55134;SDS011;41031;44.750;11.308;2023-08-12T10:58:46;1.97;;;1.70;;
55134;SDS011;41031;44.750;11.308;2023-08-12T11:01:16;3.27;;;2.57;;
55134;SDS011;41031;44.750;11.308;2023-08-12T11:03:45;7.53;;;1.90;;
55134;SDS011;41031;44.750;11.308;2023-08-12T11:06:12;2.03;;;1.93;;
55134;SDS011;41031;44.750;11.308;2023-08-12T11:08:46;1.93;;;1.73;;
55134;SDS011;41031;44.750;11.308;2023-08-12T11:11:20;3.83;;;2.23;;
55134;SDS011;41031;44.750;11.308;2023-08-12T11:13:53;3.13;;;1.80;;
55134;SDS011;41031;44.750;11.308;2023-08-12T11:16:35;2.23;;;1.90;;
55134;SDS011;41031;44.750;11.308;2023-08-12T11:19:03;3.90;;;1.90;;
55134;SDS011;41031;44.750;11.308;2023-08-12T11:21:30;4.10;;;1.50;;
55134;SDS011;41031;44.750;11.308;2023-08-12T11:23:57;5.13;;;2.10;;
55134;SDS011;41031;44.750;11.308;2023-08-12T11:26:26;2.53;;;1.95;;
55134;SDS011;41031;44.750;11.308;2023-08-12T11:28:53;4.32;;;2.17;;
55134;SDS011;41031;44.750;11.308;2023-08-12T11:31:21;2.30;;;2.07;;
55134;SDS011;41031;44.750;11.308;2023-08-12T11:33:48;1.57;;;1.47;;
55134;SDS011;41031;44.750;11.308;2023-08-12T11:36:16;2.67;;;1.73;;
55134;SDS011;41031;44.750;11.308;2023-08-12T11:38:43;3.27;;;2.07;;
55134;SDS011;41031;44.750;11.308;2023-08-12T11:41:10;1.70;;;1.60;;
55134;SDS011;41031;44.750;11.308;2023-08-12T11:43:38;2.90;;;1.77;;
55134;SDS011;41031;44.750;11.308;2023-08-12T11:46:05;3.83;;;1.93;;
55134;SDS011;41031;44.750;11.308;2023-08-12T11:48:32;4.40;;;1.93;;
55134;SDS011;41031;44.750;11.308;2023-08-12T11:50:59;2.28;;;2.00;;
55134;SDS011;41031;44.750;11.308;2023-08-12T11:53:27;3.25;;;2.00;;
55134;SDS011;41031;44.750;11.308;2023-08-12T11:55:54;3.40;;;1.73;;
55134;SDS011;41031;44.750;11.308;2023-08-12T11:58:21;4.97;;;2.00;;
55134;SDS011;41031;44.750;11.308;2023-08-12T12:00:49;2.15;;;1.70;;
55134;SDS011;41031;44.750;11.308;2023-08-12T12:03:16;1.90;;;1.80;;
55134;SDS011;41031;44.750;11.308;2023-08-12T12:05:45;2.20;;;2.00;;
55134;SDS011;41031;44.750;11.308;2023-08-12T12:08:13;3.42;;;2.03;;
55134;SDS011;41031;44.750;11.308;2023-08-12T12:10:41;3.13;;;2.30;;
55134;SDS011;41031;44.750;11.308;2023-08-12T12:13:08;3.05;;;1.73;;
55134;SDS011;41031;44.750;11.308;2023-08-12T12:15:38;2.90;;;1.75;;
55134;SDS011;41031;44.750;11.308;2023-08-12T12:18:11;2.63;;;2.03;;
55134;SDS011;41031;44.750;11.308;2023-08-12T12:20:57;2.95;;;1.70;;
55134;SDS011;41031;44.750;11.308;2023-08-12T12:23:29;3.57;;;2.10;;
55134;SDS011;41031;44.750;11.308;2023-08-12T12:26:00;4.13;;;1.77;;
55134;SDS011;41031;44.750;11.308;2023-08-12T12:28:28;1.73;;;1.63;;
55134;SDS011;41031;44.750;11.308;2023-08-12T12:30:55;7.10;;;2.00;;
55134;SDS011;41031;44.750;11.308;2023-08-12T12:33:23;4.03;;;2.10;;
55134;SDS011;41031;44.750;11.308;2023-08-12T12:35:49;7.43;;;1.77;;
55134;SDS011;41031;44.750;11.308;2023-08-12T12:38:24;2.33;;;1.80;;
55134;SDS011;41031;44.750;11.308;2023-08-12T12:40:51;3.73;;;1.70;;
55134;SDS011;41031;44.750;11.308;2023-08-12T12:43:18;1.70;;;1.60;;
55134;SDS011;41031;44.750;11.308;2023-08-12T12:45:45;2.40;;;2.00;;
55134;SDS011;41031;44.750;11.308;2023-08-12T12:48:12;4.90;;;2.30;;
55134;SDS011;41031;44.750;11.308;2023-08-12T12:50:39;3.70;;;1.80;;
55134;SDS011;41031;44.750;11.308;2023-08-12T12:53:06;1.90;;;1.60;;
55134;SDS011;41031;44.750;11.308;2023-08-12T12:55:33;1.98;;;1.75;;
55134;SDS011;41031;44.750;11.308;2023-08-12T12:58:00;4.30;;;2.10;;
55134;SDS011;41031;44.750;11.308;2023-08-12T13:00:27;1.70;;;1.60;;
55134;SDS011;41031;44.750;11.308;2023-08-12T13:02:54;2.77;;;1.70;;
55134;SDS011;41031;44.750;11.308;2023-08-12T13:05:21;3.07;;;1.83;;
55134;SDS011;41031;44.750;11.308;2023-08-12T13:07:48;2.63;;;2.00;;
55134;SDS011;41031;44.750;11.308;2023-08-12T13:10:15;2.67;;;2.20;;
55134;SDS011;41031;44.750;11.308;2023-08-12T13:12:42;3.73;;;2.40;;
55134;SDS011;41031;44.750;11.308;2023-08-12T13:15:09;5.80;;;2.00;;
55134;SDS011;41031;44.750;11.308;2023-08-12T13:17:36;3.23;;;1.93;;
55134;SDS011;41031;44.750;11.308;2023-08-12T13:20:03;5.57;;;1.80;;
55134;SDS011;41031;44.750;11.308;2023-08-12T13:22:31;2.53;;;1.70;;
55134;SDS011;41031;44.750;11.308;2023-08-12T13:24:58;2.43;;;2.23;;
55134;SDS011;41031;44.750;11.308;2023-08-12T13:27:26;1.90;;;1.63;;
55134;SDS011;41031;44.750;11.308;2023-08-12T13:29:53;1.70;;;1.60;;
55134;SDS011;41031;44.750;11.308;2023-08-12T13:32:20;3.50;;;1.50;;
55134;SDS011;41031;44.750;11.308;2023-08-12T13:34:47;2.25;;;1.75;;
55134;SDS011;41031;44.750;11.308;2023-08-12T13:37:14;3.43;;;1.97;;
55134;SDS011;41031;44.750;11.308;2023-08-12T13:39:41;1.80;;;1.70;;
55134;SDS011;41031;44.750;11.308;2023-08-12T13:42:08;4.87;;;2.00;;
55134;SDS011;41031;44.750;11.308;2023-08-12T13:44:36;2.93;;;1.87;;
55134;SDS011;41031;44.750;11.308;2023-08-12T13:47:03;3.60;;;2.00;;
55134;SDS011;41031;44.750;11.308;2023-08-12T13:49:30;4.93;;;1.77;;
55134;SDS011;41031;44.750;11.308;2023-08-12T13:51:58;2.30;;;1.80;;
55134;SDS011;41031;44.750;11.308;2023-08-12T13:54:27;3.80;;;2.20;;
55134;SDS011;41031;44.750;11.308;2023-08-12T13:56:54;4.53;;;2.17;;
55134;SDS011;41031;44.750;11.308;2023-08-12T13:59:21;2.20;;;2.00;;
55134;SDS011;41031;44.750;11.308;2023-08-12T14:01:48;2.03;;;1.90;;
55134;SDS011;41031;44.750;11.308;2023-08-12T14:04:16;2.20;;;1.92;;
55134;SDS011;41031;44.750;11.308;2023-08-12T14:06:43;1.90;;;1.80;;
55134;SDS011;41031;44.750;11.308;2023-08-12T14:09:10;4.33;;;2.30;;
55134;SDS011;41031;44.750;11.308;2023-08-12T14:11:40;1.80;;;1.70;;
55134;SDS011;41031;44.750;11.308;2023-08-12T14:14:07;2.27;;;1.90;;
55134;SDS011;41031;44.750;11.308;2023-08-12T14:16:35;4.43;;;1.83;;
55134;SDS011;41031;44.750;11.308;2023-08-12T14:19:02;1.63;;;1.53;;
55134;SDS011;41031;44.750;11.308;2023-08-12T14:21:29;3.83;;;1.77;;
55134;SDS011;41031;44.750;11.308;2023-08-12T14:23:56;2.23;;;1.80;;
55134;SDS011;41031;44.750;11.308;2023-08-12T14:26:23;2.83;;;2.33;;
55134;SDS011;41031;44.750;11.308;2023-08-12T14:28:50;3.97;;;2.20;;
55134;SDS011;41031;44.750;11.308;2023-08-12T14:31:17;3.50;;;2.03;;
55134;SDS011;41031;44.750;11.308;2023-08-12T14:33:45;3.90;;;1.97;;
55134;SDS011;41031;44.750;11.308;2023-08-12T14:36:11;2.97;;;1.70;;
55134;SDS011;41031;44.750;11.308;2023-08-12T14:38:38;3.03;;;1.90;;
55134;SDS011;41031;44.750;11.308;2023-08-12T14:41:05;4.30;;;1.90;;
55134;SDS011;41031;44.750;11.308;2023-08-12T14:43:33;3.87;;;2.10;;
55134;SDS011;41031;44.750;11.308;2023-08-12T14:46:00;5.88;;;2.10;;